sensor_id;sensor_type;location;lat;lon;timestamp;P1;durP1;ratioP1;P2;durP2;ratioP2
76447;SDS011;65284;51.040;13.722;2023-04-15T00:00:54;5.43;;;2.58;;
76447;SDS011;65284;51.040;13.722;2023-04-15T00:03:21;5.88;;;2.70;;
76447;SDS011;65284;51.040;13.722;2023-04-15T00:05:48;5.38;;;2.50;;
76447;SDS011;65284;51.040;13.722;2023-04-15T00:08:14;5.03;;;2.50;;
76447;SDS011;65284;51.040;13.722;2023-04-15T00:10:41;5.35;;;2.67;;
76447;SDS011;65284;51.040;13.722;2023-04-15T00:13:09;5.32;;;2.80;;
76447;SDS011;65284;51.040;13.722;2023-04-15T00:15:36;5.00;;;2.25;;
76447;SDS011;65284;51.040;13.722;2023-04-15T00:18:02;4.63;;;2.50;;
76447;SDS011;65284;51.040;13.722;2023-04-15T00:20:29;4.95;;;2.40;;
76447;SDS011;65284;51.040;13.722;2023-04-15T00:22:56;4.88;;;2.63;;
76447;SDS011;65284;51.040;13.722;2023-04-15T00:25:23;5.80;;;2.83;;
76447;SDS011;65284;51.040;13.722;2023-04-15T00:27:50;6.70;;;3.00;;
76447;SDS011;65284;51.040;13.722;2023-04-15T00:30:16;5.57;;;2.53;;
76447;SDS011;65284;51.040;13.722;2023-04-15T00:32:42;3.88;;;1.98;;
76447;SDS011;65284;51.040;13.722;2023-04-15T00:35:10;4.50;;;2.40;;
76447;SDS011;65284;51.040;13.722;2023-04-15T00:37:37;3.90;;;1.90;;
76447;SDS011;65284;51.040;13.722;2023-04-15T00:40:03;6.65;;;2.88;;
76447;SDS011;65284;51.040;13.722;2023-04-15T00:42:33;5.57;;;2.60;;
76447;SDS011;65284;51.040;13.722;2023-04-15T00:45:00;4.38;;;2.28;;
76447;SDS011;65284;51.040;13.722;2023-04-15T00:47:26;4.88;;;2.35;;
76447;SDS011;65284;51.040;13.722;2023-04-15T00:49:55;5.28;;;2.50;;
76447;SDS011;65284;51.040;13.722;2023-04-15T00:52:21;4.85;;;2.30;;
76447;SDS011;65284;51.040;13.722;2023-04-15T00:54:48;4.43;;;2.20;;
76447;SDS011;65284;51.040;13.722;2023-04-15T00:57:16;4.57;;;2.40;;
76447;SDS011;65284;51.040;13.722;2023-04-15T00:59:42;3.88;;;2.00;;
76447;SDS011;65284;51.040;13.722;2023-04-15T01:02:09;4.50;;;2.00;;
76447;SDS011;65284;51.040;13.722;2023-04-15T01:04:35;3.97;;;1.83;;
76447;SDS011;65284;51.040;13.722;2023-04-15T01:07:02;4.68;;;2.20;;
76447;SDS011;65284;51.040;13.722;2023-04-15T01:09:29;4.15;;;1.80;;
76447;SDS011;65284;51.040;13.722;2023-04-15T01:11:55;3.78;;;1.90;;
76447;SDS011;65284;51.040;13.722;2023-04-15T01:14:22;4.15;;;2.15;;
76447;SDS011;65284;51.040;13.722;2023-04-15T01:16:48;23.40;;;11.05;;
76447;SDS011;65284;51.040;13.722;2023-04-15T01:19:15;24.02;;;12.23;;
76447;SDS011;65284;51.040;13.722;2023-04-15T01:21:43;4.90;;;2.63;;
76447;SDS011;65284;51.040;13.722;2023-04-15T01:24:10;3.85;;;2.05;;
76447;SDS011;65284;51.040;13.722;2023-04-15T01:26:37;4.25;;;1.92;;
76447;SDS011;65284;51.040;13.722;2023-04-15T01:29:04;4.05;;;2.20;;
76447;SDS011;65284;51.040;13.722;2023-04-15T01:31:32;4.15;;;2.15;;
76447;SDS011;65284;51.040;13.722;2023-04-15T01:33:59;4.90;;;2.38;;
76447;SDS011;65284;51.040;13.722;2023-04-15T01:36:26;5.63;;;2.60;;
76447;SDS011;65284;51.040;13.722;2023-04-15T01:38:53;4.43;;;2.30;;
76447;SDS011;65284;51.040;13.722;2023-04-15T01:41:23;4.90;;;2.35;;
76447;SDS011;65284;51.040;13.722;2023-04-15T01:43:51;5.28;;;2.10;;
76447;SDS011;65284;51.040;13.722;2023-04-15T01:46:18;5.47;;;2.40;;
76447;SDS011;65284;51.040;13.722;2023-04-15T01:48:45;5.78;;;2.70;;
76447;SDS011;65284;51.040;13.722;2023-04-15T01:51:11;5.18;;;2.80;;
76447;SDS011;65284;51.040;13.722;2023-04-15T01:53:38;5.10;;;2.60;;
76447;SDS011;65284;51.040;13.722;2023-04-15T01:56:04;5.32;;;2.88;;
76447;SDS011;65284;51.040;13.722;2023-04-15T01:58:32;6.07;;;2.65;;
76447;SDS011;65284;51.040;13.722;2023-04-15T02:00:58;5.75;;;2.80;;
76447;SDS011;65284;51.040;13.722;2023-04-15T02:03:25;5.15;;;2.35;;
76447;SDS011;65284;51.040;13.722;2023-04-15T02:05:51;6.45;;;2.85;;
76447;SDS011;65284;51.040;13.722;2023-04-15T02:08:18;6.70;;;3.42;;
76447;SDS011;65284;51.040;13.722;2023-04-15T02:10:44;8.93;;;3.60;;
76447;SDS011;65284;51.040;13.722;2023-04-15T02:13:11;6.45;;;3.50;;
76447;SDS011;65284;51.040;13.722;2023-04-15T02:15:37;6.45;;;3.10;;
76447;SDS011;65284;51.040;13.722;2023-04-15T02:18:03;6.78;;;3.42;;
76447;SDS011;65284;51.040;13.722;2023-04-15T02:20:30;5.22;;;2.80;;
76447;SDS011;65284;51.040;13.722;2023-04-15T02:22:57;6.50;;;3.20;;
76447;SDS011;65284;51.040;13.722;2023-04-15T02:25:23;5.88;;;3.25;;
76447;SDS011;65284;51.040;13.722;2023-04-15T02:27:49;5.75;;;3.17;;
76447;SDS011;65284;51.040;13.722;2023-04-15T02:30:16;5.90;;;3.40;;
76447;SDS011;65284;51.040;13.722;2023-04-15T02:32:43;7.85;;;4.35;;
76447;SDS011;65284;51.040;13.722;2023-04-15T02:35:10;5.82;;;3.17;;
76447;SDS011;65284;51.040;13.722;2023-04-15T02:37:37;6.13;;;3.08;;
76447;SDS011;65284;51.040;13.722;2023-04-15T02:40:08;5.82;;;3.10;;
76447;SDS011;65284;51.040;13.722;2023-04-15T02:42:39;9.32;;;3.40;;
76447;SDS011;65284;51.040;13.722;2023-04-15T02:45:06;6.18;;;2.92;;
76447;SDS011;65284;51.040;13.722;2023-04-15T02:47:33;5.97;;;2.97;;
76447;SDS011;65284;51.040;13.722;2023-04-15T02:50:02;5.88;;;3.22;;
76447;SDS011;65284;51.040;13.722;2023-04-15T02:52:29;5.53;;;3.05;;
76447;SDS011;65284;51.040;13.722;2023-04-15T02:54:55;6.72;;;3.30;;
76447;SDS011;65284;51.040;13.722;2023-04-15T02:57:26;6.38;;;3.30;;
76447;SDS011;65284;51.040;13.722;2023-04-15T02:59:54;5.68;;;2.92;;
76447;SDS011;65284;51.040;13.722;2023-04-15T03:02:20;5.18;;;2.60;;
76447;SDS011;65284;51.040;13.722;2023-04-15T03:04:47;5.80;;;2.88;;
76447;SDS011;65284;51.040;13.722;2023-04-15T03:07:13;6.05;;;3.22;;
76447;SDS011;65284;51.040;13.722;2023-04-15T03:09:40;6.28;;;3.50;;
76447;SDS011;65284;51.040;13.722;2023-04-15T03:12:07;5.75;;;3.10;;
76447;SDS011;65284;51.040;13.722;2023-04-15T03:14:33;5.53;;;2.90;;
76447;SDS011;65284;51.040;13.722;2023-04-15T03:16:59;6.68;;;3.50;;
76447;SDS011;65284;51.040;13.722;2023-04-15T03:19:26;6.18;;;3.13;;
76447;SDS011;65284;51.040;13.722;2023-04-15T03:21:53;5.80;;;3.20;;
76447;SDS011;65284;51.040;13.722;2023-04-15T03:24:19;7.47;;;3.38;;
76447;SDS011;65284;51.040;13.722;2023-04-15T03:26:46;6.35;;;3.10;;
76447;SDS011;65284;51.040;13.722;2023-04-15T03:29:12;6.82;;;3.00;;
76447;SDS011;65284;51.040;13.722;2023-04-15T03:31:39;7.22;;;3.00;;
76447;SDS011;65284;51.040;13.722;2023-04-15T03:34:05;5.50;;;3.10;;
76447;SDS011;65284;51.040;13.722;2023-04-15T03:36:32;5.80;;;3.15;;
76447;SDS011;65284;51.040;13.722;2023-04-15T03:38:58;5.90;;;3.20;;
76447;SDS011;65284;51.040;13.722;2023-04-15T03:41:27;5.95;;;2.90;;
76447;SDS011;65284;51.040;13.722;2023-04-15T03:43:54;6.80;;;3.30;;
76447;SDS011;65284;51.040;13.722;2023-04-15T03:46:20;6.28;;;3.40;;
76447;SDS011;65284;51.040;13.722;2023-04-15T03:48:47;6.45;;;3.28;;
76447;SDS011;65284;51.040;13.722;2023-04-15T03:51:13;6.57;;;3.45;;
76447;SDS011;65284;51.040;13.722;2023-04-15T03:53:40;9.07;;;3.88;;
76447;SDS011;65284;51.040;13.722;2023-04-15T03:56:06;7.60;;;3.90;;
76447;SDS011;65284;51.040;13.722;2023-04-15T03:58:33;6.45;;;3.33;;
76447;SDS011;65284;51.040;13.722;2023-04-15T04:00:59;8.55;;;4.30;;
76447;SDS011;65284;51.040;13.722;2023-04-15T04:03:26;7.00;;;3.67;;
76447;SDS011;65284;51.040;13.722;2023-04-15T04:05:52;6.47;;;3.72;;
76447;SDS011;65284;51.040;13.722;2023-04-15T04:08:19;8.88;;;4.32;;
76447;SDS011;65284;51.040;13.722;2023-04-15T04:10:46;7.90;;;4.25;;
76447;SDS011;65284;51.040;13.722;2023-04-15T04:13:13;8.13;;;3.90;;
76447;SDS011;65284;51.040;13.722;2023-04-15T04:15:39;8.15;;;3.90;;
76447;SDS011;65284;51.040;13.722;2023-04-15T04:18:06;7.72;;;4.10;;
76447;SDS011;65284;51.040;13.722;2023-04-15T04:20:32;8.93;;;4.13;;
76447;SDS011;65284;51.040;13.722;2023-04-15T04:22:59;7.57;;;4.07;;
76447;SDS011;65284;51.040;13.722;2023-04-15T04:25:25;7.80;;;4.05;;
76447;SDS011;65284;51.040;13.722;2023-04-15T04:27:52;7.22;;;3.85;;
76447;SDS011;65284;51.040;13.722;2023-04-15T04:30:19;9.82;;;4.43;;
76447;SDS011;65284;51.040;13.722;2023-04-15T04:32:45;8.57;;;4.05;;
76447;SDS011;65284;51.040;13.722;2023-04-15T04:35:12;7.80;;;4.00;;
76447;SDS011;65284;51.040;13.722;2023-04-15T04:37:38;8.63;;;4.45;;
76447;SDS011;65284;51.040;13.722;2023-04-15T04:40:05;8.77;;;4.35;;
76447;SDS011;65284;51.040;13.722;2023-04-15T04:42:33;9.02;;;4.28;;
76447;SDS011;65284;51.040;13.722;2023-04-15T04:44:59;8.88;;;4.50;;
76447;SDS011;65284;51.040;13.722;2023-04-15T04:47:26;10.27;;;4.68;;
76447;SDS011;65284;51.040;13.722;2023-04-15T04:49:52;11.02;;;5.75;;
76447;SDS011;65284;51.040;13.722;2023-04-15T04:52:19;11.65;;;5.03;;
76447;SDS011;65284;51.040;13.722;2023-04-15T04:54:45;12.57;;;5.07;;
76447;SDS011;65284;51.040;13.722;2023-04-15T04:57:12;11.65;;;5.47;;
76447;SDS011;65284;51.040;13.722;2023-04-15T04:59:38;13.27;;;6.05;;
76447;SDS011;65284;51.040;13.722;2023-04-15T05:02:05;10.63;;;5.30;;
76447;SDS011;65284;51.040;13.722;2023-04-15T05:04:32;11.10;;;4.97;;
76447;SDS011;65284;51.040;13.722;2023-04-15T05:06:59;14.10;;;6.70;;
76447;SDS011;65284;51.040;13.722;2023-04-15T05:09:25;22.58;;;10.80;;
76447;SDS011;65284;51.040;13.722;2023-04-15T05:11:52;23.45;;;10.85;;
76447;SDS011;65284;51.040;13.722;2023-04-15T05:14:19;13.88;;;7.20;;
76447;SDS011;65284;51.040;13.722;2023-04-15T05:16:48;11.10;;;5.28;;
76447;SDS011;65284;51.040;13.722;2023-04-15T05:19:14;9.45;;;4.53;;
76447;SDS011;65284;51.040;13.722;2023-04-15T05:21:41;9.98;;;4.20;;
76447;SDS011;65284;51.040;13.722;2023-04-15T05:24:08;6.93;;;3.15;;
76447;SDS011;65284;51.040;13.722;2023-04-15T05:26:34;7.90;;;3.65;;
76447;SDS011;65284;51.040;13.722;2023-04-15T05:29:01;7.43;;;3.60;;
76447;SDS011;65284;51.040;13.722;2023-04-15T05:31:28;6.82;;;3.22;;
76447;SDS011;65284;51.040;13.722;2023-04-15T05:33:54;6.93;;;3.45;;
76447;SDS011;65284;51.040;13.722;2023-04-15T05:36:20;6.78;;;3.45;;
76447;SDS011;65284;51.040;13.722;2023-04-15T05:38:47;6.10;;;2.80;;
76447;SDS011;65284;51.040;13.722;2023-04-15T05:41:13;5.32;;;2.63;;
76447;SDS011;65284;51.040;13.722;2023-04-15T05:43:44;6.38;;;2.40;;
76447;SDS011;65284;51.040;13.722;2023-04-15T05:46:10;4.50;;;2.13;;
76447;SDS011;65284;51.040;13.722;2023-04-15T05:48:37;4.28;;;2.40;;
76447;SDS011;65284;51.040;13.722;2023-04-15T05:51:03;4.13;;;2.22;;
76447;SDS011;65284;51.040;13.722;2023-04-15T05:53:30;4.40;;;2.30;;
76447;SDS011;65284;51.040;13.722;2023-04-15T05:55:57;4.00;;;2.20;;
76447;SDS011;65284;51.040;13.722;2023-04-15T05:58:23;4.38;;;2.15;;
76447;SDS011;65284;51.040;13.722;2023-04-15T06:00:50;5.28;;;2.08;;
76447;SDS011;65284;51.040;13.722;2023-04-15T06:03:17;3.88;;;1.70;;
76447;SDS011;65284;51.040;13.722;2023-04-15T06:05:43;5.05;;;1.90;;
76447;SDS011;65284;51.040;13.722;2023-04-15T06:08:10;4.10;;;1.88;;
76447;SDS011;65284;51.040;13.722;2023-04-15T06:10:37;3.58;;;1.67;;
76447;SDS011;65284;51.040;13.722;2023-04-15T06:13:04;3.75;;;1.50;;
76447;SDS011;65284;51.040;13.722;2023-04-15T06:15:30;4.35;;;1.70;;
76447;SDS011;65284;51.040;13.722;2023-04-15T06:17:57;2.40;;;1.23;;
76447;SDS011;65284;51.040;13.722;2023-04-15T06:20:24;3.13;;;1.48;;
76447;SDS011;65284;51.040;13.722;2023-04-15T06:22:51;2.78;;;1.08;;
76447;SDS011;65284;51.040;13.722;2023-04-15T06:25:17;2.13;;;0.98;;
76447;SDS011;65284;51.040;13.722;2023-04-15T06:27:44;2.17;;;0.95;;
76447;SDS011;65284;51.040;13.722;2023-04-15T06:30:10;2.30;;;0.90;;
76447;SDS011;65284;51.040;13.722;2023-04-15T06:32:37;2.17;;;0.82;;
76447;SDS011;65284;51.040;13.722;2023-04-15T06:35:04;2.58;;;1.10;;
76447;SDS011;65284;51.040;13.722;2023-04-15T06:37:30;2.90;;;1.23;;
76447;SDS011;65284;51.040;13.722;2023-04-15T06:39:57;4.38;;;2.15;;
76447;SDS011;65284;51.040;13.722;2023-04-15T06:42:24;4.05;;;1.33;;
76447;SDS011;65284;51.040;13.722;2023-04-15T06:44:50;2.67;;;1.00;;
76447;SDS011;65284;51.040;13.722;2023-04-15T06:47:17;1.80;;;0.90;;
76447;SDS011;65284;51.040;13.722;2023-04-15T06:49:44;2.92;;;1.48;;
76447;SDS011;65284;51.040;13.722;2023-04-15T06:52:11;3.38;;;1.40;;
76447;SDS011;65284;51.040;13.722;2023-04-15T06:54:38;2.13;;;0.77;;
76447;SDS011;65284;51.040;13.722;2023-04-15T06:57:04;1.95;;;0.80;;
76447;SDS011;65284;51.040;13.722;2023-04-15T06:59:32;4.85;;;2.00;;
76447;SDS011;65284;51.040;13.722;2023-04-15T07:01:58;5.57;;;2.40;;
76447;SDS011;65284;51.040;13.722;2023-04-15T07:04:25;1.77;;;0.82;;
76447;SDS011;65284;51.040;13.722;2023-04-15T07:06:51;1.52;;;0.40;;
76447;SDS011;65284;51.040;13.722;2023-04-15T07:09:20;0.82;;;0.40;;
76447;SDS011;65284;51.040;13.722;2023-04-15T07:11:47;1.52;;;0.40;;
76447;SDS011;65284;51.040;13.722;2023-04-15T07:14:14;1.17;;;0.52;;
76447;SDS011;65284;51.040;13.722;2023-04-15T07:16:41;1.00;;;0.40;;
76447;SDS011;65284;51.040;13.722;2023-04-15T07:19:07;0.80;;;0.40;;
76447;SDS011;65284;51.040;13.722;2023-04-15T07:21:34;0.98;;;0.50;;
76447;SDS011;65284;51.040;13.722;2023-04-15T07:24:00;1.80;;;0.43;;
76447;SDS011;65284;51.040;13.722;2023-04-15T07:26:27;1.08;;;0.57;;
76447;SDS011;65284;51.040;13.722;2023-04-15T07:28:53;2.35;;;0.40;;
76447;SDS011;65284;51.040;13.722;2023-04-15T07:31:20;1.02;;;0.40;;
76447;SDS011;65284;51.040;13.722;2023-04-15T07:33:47;1.02;;;0.50;;
76447;SDS011;65284;51.040;13.722;2023-04-15T07:36:13;1.02;;;0.40;;
76447;SDS011;65284;51.040;13.722;2023-04-15T07:38:40;0.77;;;0.40;;
76447;SDS011;65284;51.040;13.722;2023-04-15T07:41:06;1.52;;;0.50;;
76447;SDS011;65284;51.040;13.722;2023-04-15T07:43:33;0.95;;;0.52;;
76447;SDS011;65284;51.040;13.722;2023-04-15T07:45:59;1.67;;;0.40;;
76447;SDS011;65284;51.040;13.722;2023-04-15T07:48:26;1.15;;;0.40;;
76447;SDS011;65284;51.040;13.722;2023-04-15T07:50:52;2.28;;;0.60;;
76447;SDS011;65284;51.040;13.722;2023-04-15T07:53:19;0.90;;;0.32;;
76447;SDS011;65284;51.040;13.722;2023-04-15T07:55:45;0.80;;;0.40;;
76447;SDS011;65284;51.040;13.722;2023-04-15T07:58:12;1.10;;;0.50;;
76447;SDS011;65284;51.040;13.722;2023-04-15T08:00:39;0.88;;;0.40;;
76447;SDS011;65284;51.040;13.722;2023-04-15T08:03:05;1.30;;;0.50;;
76447;SDS011;65284;51.040;13.722;2023-04-15T08:05:32;0.90;;;0.47;;
76447;SDS011;65284;51.040;13.722;2023-04-15T08:07:59;1.15;;;0.47;;
76447;SDS011;65284;51.040;13.722;2023-04-15T08:10:27;1.95;;;0.50;;
76447;SDS011;65284;51.040;13.722;2023-04-15T08:12:55;1.00;;;0.50;;
76447;SDS011;65284;51.040;13.722;2023-04-15T08:15:21;3.08;;;1.30;;
76447;SDS011;65284;51.040;13.722;2023-04-15T08:17:48;1.73;;;0.80;;
76447;SDS011;65284;51.040;13.722;2023-04-15T08:20:14;1.45;;;0.60;;
76447;SDS011;65284;51.040;13.722;2023-04-15T08:22:41;1.80;;;0.80;;
76447;SDS011;65284;51.040;13.722;2023-04-15T08:25:08;1.40;;;0.80;;
76447;SDS011;65284;51.040;13.722;2023-04-15T08:27:35;2.42;;;0.95;;
76447;SDS011;65284;51.040;13.722;2023-04-15T08:30:01;1.65;;;0.70;;
76447;SDS011;65284;51.040;13.722;2023-04-15T08:32:30;1.50;;;0.80;;
76447;SDS011;65284;51.040;13.722;2023-04-15T08:34:57;1.58;;;0.80;;
76447;SDS011;65284;51.040;13.722;2023-04-15T08:37:23;1.50;;;0.80;;
76447;SDS011;65284;51.040;13.722;2023-04-15T08:39:49;2.10;;;0.90;;
76447;SDS011;65284;51.040;13.722;2023-04-15T08:42:16;2.13;;;0.88;;
76447;SDS011;65284;51.040;13.722;2023-04-15T08:44:48;1.60;;;0.70;;
76447;SDS011;65284;51.040;13.722;2023-04-15T08:47:16;1.50;;;0.80;;
76447;SDS011;65284;51.040;13.722;2023-04-15T08:49:46;2.17;;;0.80;;
76447;SDS011;65284;51.040;13.722;2023-04-15T08:52:18;2.42;;;1.00;;
76447;SDS011;65284;51.040;13.722;2023-04-15T08:54:46;2.78;;;1.08;;
76447;SDS011;65284;51.040;13.722;2023-04-15T08:57:13;1.92;;;0.95;;
76447;SDS011;65284;51.040;13.722;2023-04-15T08:59:40;2.67;;;1.30;;
76447;SDS011;65284;51.040;13.722;2023-04-15T09:02:07;2.22;;;1.20;;
76447;SDS011;65284;51.040;13.722;2023-04-15T09:04:34;2.53;;;1.30;;
76447;SDS011;65284;51.040;13.722;2023-04-15T09:07:00;2.50;;;1.10;;
76447;SDS011;65284;51.040;13.722;2023-04-15T09:09:27;3.53;;;1.52;;
76447;SDS011;65284;51.040;13.722;2023-04-15T09:11:54;5.68;;;2.08;;
76447;SDS011;65284;51.040;13.722;2023-04-15T09:14:21;6.30;;;3.00;;
76447;SDS011;65284;51.040;13.722;2023-04-15T09:17:01;9.10;;;4.47;;
76447;SDS011;65284;51.040;13.722;2023-04-15T09:19:29;14.73;;;7.65;;
76447;SDS011;65284;51.040;13.722;2023-04-15T09:21:58;19.58;;;9.40;;
76447;SDS011;65284;51.040;13.722;2023-04-15T09:24:32;8.48;;;4.57;;
76447;SDS011;65284;51.040;13.722;2023-04-15T09:27:02;6.68;;;3.15;;
76447;SDS011;65284;51.040;13.722;2023-04-15T09:29:29;4.68;;;2.70;;
76447;SDS011;65284;51.040;13.722;2023-04-15T09:31:55;4.25;;;2.80;;
76447;SDS011;65284;51.040;13.722;2023-04-15T09:34:22;4.63;;;2.97;;
76447;SDS011;65284;51.040;13.722;2023-04-15T09:37:01;4.85;;;2.97;;
76447;SDS011;65284;51.040;13.722;2023-04-15T09:39:43;4.50;;;2.90;;
76447;SDS011;65284;51.040;13.722;2023-04-15T09:42:14;4.93;;;3.10;;
76447;SDS011;65284;51.040;13.722;2023-04-15T09:44:42;5.15;;;3.40;;
76447;SDS011;65284;51.040;13.722;2023-04-15T09:47:10;6.05;;;3.45;;
76447;SDS011;65284;51.040;13.722;2023-04-15T09:49:56;5.72;;;3.80;;
76447;SDS011;65284;51.040;13.722;2023-04-15T09:52:23;5.95;;;3.80;;
76447;SDS011;65284;51.040;13.722;2023-04-15T09:54:51;6.97;;;4.60;;
76447;SDS011;65284;51.040;13.722;2023-04-15T09:57:18;8.18;;;5.28;;
76447;SDS011;65284;51.040;13.722;2023-04-15T09:59:45;8.82;;;5.53;;
76447;SDS011;65284;51.040;13.722;2023-04-15T10:02:11;10.07;;;6.50;;
76447;SDS011;65284;51.040;13.722;2023-04-15T10:04:39;8.68;;;5.57;;
76447;SDS011;65284;51.040;13.722;2023-04-15T10:07:10;9.13;;;5.55;;
76447;SDS011;65284;51.040;13.722;2023-04-15T10:09:37;7.80;;;5.07;;
76447;SDS011;65284;51.040;13.722;2023-04-15T10:12:04;6.80;;;4.60;;
76447;SDS011;65284;51.040;13.722;2023-04-15T10:14:32;6.88;;;4.30;;
76447;SDS011;65284;51.040;13.722;2023-04-15T10:19:30;6.93;;;4.00;;
76447;SDS011;65284;51.040;13.722;2023-04-15T10:21:58;7.55;;;4.53;;
76447;SDS011;65284;51.040;13.722;2023-04-15T10:24:25;6.38;;;4.28;;
76447;SDS011;65284;51.040;13.722;2023-04-15T10:26:52;5.97;;;4.15;;
76447;SDS011;65284;51.040;13.722;2023-04-15T10:29:20;6.95;;;4.38;;
76447;SDS011;65284;51.040;13.722;2023-04-15T10:31:48;6.88;;;3.75;;
76447;SDS011;65284;51.040;13.722;2023-04-15T10:34:15;7.55;;;4.70;;
76447;SDS011;65284;51.040;13.722;2023-04-15T10:36:43;7.07;;;4.18;;
76447;SDS011;65284;51.040;13.722;2023-04-15T10:42:09;6.38;;;4.13;;
76447;SDS011;65284;51.040;13.722;2023-04-15T10:44:38;7.00;;;3.85;;
76447;SDS011;65284;51.040;13.722;2023-04-15T10:47:14;7.32;;;4.20;;
76447;SDS011;65284;51.040;13.722;2023-04-15T10:49:46;6.72;;;4.15;;
76447;SDS011;65284;51.040;13.722;2023-04-15T10:52:16;6.63;;;4.43;;
76447;SDS011;65284;51.040;13.722;2023-04-15T10:54:43;6.75;;;3.83;;
76447;SDS011;65284;51.040;13.722;2023-04-15T10:57:14;6.43;;;4.20;;
76447;SDS011;65284;51.040;13.722;2023-04-15T10:59:59;6.22;;;4.32;;
76447;SDS011;65284;51.040;13.722;2023-04-15T11:05:05;5.30;;;3.67;;
76447;SDS011;65284;51.040;13.722;2023-04-15T11:09:59;5.75;;;3.90;;
76447;SDS011;65284;51.040;13.722;2023-04-15T11:12:33;6.10;;;3.92;;
76447;SDS011;65284;51.040;13.722;2023-04-15T11:18:19;5.82;;;3.80;;
76447;SDS011;65284;51.040;13.722;2023-04-15T11:20:48;6.35;;;3.97;;
76447;SDS011;65284;51.040;13.722;2023-04-15T11:23:30;5.43;;;3.53;;
76447;SDS011;65284;51.040;13.722;2023-04-15T11:25:59;6.25;;;4.05;;
76447;SDS011;65284;51.040;13.722;2023-04-15T11:28:27;5.57;;;3.80;;
76447;SDS011;65284;51.040;13.722;2023-04-15T11:30:55;6.53;;;3.80;;
76447;SDS011;65284;51.040;13.722;2023-04-15T11:33:22;5.00;;;3.33;;
76447;SDS011;65284;51.040;13.722;2023-04-15T11:35:49;5.78;;;3.70;;
76447;SDS011;65284;51.040;13.722;2023-04-15T11:38:18;6.93;;;3.58;;
76447;SDS011;65284;51.040;13.722;2023-04-15T11:40:44;5.68;;;3.17;;
76447;SDS011;65284;51.040;13.722;2023-04-15T11:43:19;5.60;;;3.67;;
76447;SDS011;65284;51.040;13.722;2023-04-15T11:45:49;5.45;;;2.92;;
76447;SDS011;65284;51.040;13.722;2023-04-15T11:48:20;4.72;;;3.00;;
76447;SDS011;65284;51.040;13.722;2023-04-15T11:50:53;5.07;;;3.20;;
76447;SDS011;65284;51.040;13.722;2023-04-15T11:53:34;4.78;;;3.13;;
76447;SDS011;65284;51.040;13.722;2023-04-15T11:56:01;4.75;;;2.92;;
76447;SDS011;65284;51.040;13.722;2023-04-15T11:58:28;4.90;;;2.85;;
76447;SDS011;65284;51.040;13.722;2023-04-15T12:03:29;4.22;;;2.90;;
76447;SDS011;65284;51.040;13.722;2023-04-15T12:11:18;5.03;;;3.13;;
76447;SDS011;65284;51.040;13.722;2023-04-15T12:13:46;4.95;;;3.03;;
76447;SDS011;65284;51.040;13.722;2023-04-15T12:16:17;5.30;;;3.10;;
76447;SDS011;65284;51.040;13.722;2023-04-15T12:18:45;4.60;;;3.08;;
76447;SDS011;65284;51.040;13.722;2023-04-15T12:21:12;5.63;;;3.08;;
76447;SDS011;65284;51.040;13.722;2023-04-15T12:23:46;4.95;;;2.97;;
76447;SDS011;65284;51.040;13.722;2023-04-15T12:26:17;4.68;;;2.85;;
76447;SDS011;65284;51.040;13.722;2023-04-15T12:29:00;6.47;;;3.65;;
76447;SDS011;65284;51.040;13.722;2023-04-15T12:31:31;4.80;;;2.92;;
76447;SDS011;65284;51.040;13.722;2023-04-15T12:33:59;4.85;;;3.00;;
76447;SDS011;65284;51.040;13.722;2023-04-15T12:36:26;4.05;;;2.78;;
76447;SDS011;65284;51.040;13.722;2023-04-15T12:38:53;4.32;;;2.85;;
76447;SDS011;65284;51.040;13.722;2023-04-15T12:41:20;4.57;;;3.25;;
76447;SDS011;65284;51.040;13.722;2023-04-15T12:43:47;5.63;;;2.83;;
76447;SDS011;65284;51.040;13.722;2023-04-15T12:46:13;5.35;;;3.13;;
76447;SDS011;65284;51.040;13.722;2023-04-15T12:48:41;5.20;;;3.33;;
76447;SDS011;65284;51.040;13.722;2023-04-15T12:51:07;5.18;;;3.30;;
76447;SDS011;65284;51.040;13.722;2023-04-15T12:53:34;4.90;;;3.25;;
76447;SDS011;65284;51.040;13.722;2023-04-15T12:56:00;4.75;;;3.40;;
76447;SDS011;65284;51.040;13.722;2023-04-15T12:58:27;5.35;;;3.00;;
76447;SDS011;65284;51.040;13.722;2023-04-15T13:00:53;4.95;;;3.10;;
76447;SDS011;65284;51.040;13.722;2023-04-15T13:03:20;4.38;;;2.60;;
76447;SDS011;65284;51.040;13.722;2023-04-15T13:05:46;4.30;;;2.75;;
76447;SDS011;65284;51.040;13.722;2023-04-15T13:08:13;4.75;;;2.75;;
76447;SDS011;65284;51.040;13.722;2023-04-15T13:10:39;4.40;;;2.70;;
76447;SDS011;65284;51.040;13.722;2023-04-15T13:13:07;3.70;;;2.08;;
76447;SDS011;65284;51.040;13.722;2023-04-15T13:15:34;3.58;;;2.33;;
76447;SDS011;65284;51.040;13.722;2023-04-15T13:18:00;4.03;;;2.30;;
76447;SDS011;65284;51.040;13.722;2023-04-15T13:20:26;4.22;;;2.10;;
76447;SDS011;65284;51.040;13.722;2023-04-15T13:22:53;3.78;;;2.15;;
76447;SDS011;65284;51.040;13.722;2023-04-15T13:25:19;3.60;;;2.15;;
76447;SDS011;65284;51.040;13.722;2023-04-15T13:27:46;3.53;;;1.90;;
76447;SDS011;65284;51.040;13.722;2023-04-15T13:30:13;4.28;;;2.00;;
76447;SDS011;65284;51.040;13.722;2023-04-15T13:32:39;4.45;;;2.20;;
76447;SDS011;65284;51.040;13.722;2023-04-15T13:35:06;4.65;;;2.53;;
76447;SDS011;65284;51.040;13.722;2023-04-15T13:37:32;4.03;;;2.33;;
76447;SDS011;65284;51.040;13.722;2023-04-15T13:39:59;5.43;;;3.00;;
76447;SDS011;65284;51.040;13.722;2023-04-15T13:42:25;5.00;;;2.80;;
76447;SDS011;65284;51.040;13.722;2023-04-15T13:44:52;5.72;;;2.50;;
76447;SDS011;65284;51.040;13.722;2023-04-15T13:47:19;4.85;;;2.60;;
76447;SDS011;65284;51.040;13.722;2023-04-15T13:49:46;6.90;;;3.00;;
76447;SDS011;65284;51.040;13.722;2023-04-15T13:52:13;6.55;;;3.05;;
76447;SDS011;65284;51.040;13.722;2023-04-15T13:54:39;5.50;;;2.78;;
76447;SDS011;65284;51.040;13.722;2023-04-15T13:57:06;4.20;;;2.53;;
76447;SDS011;65284;51.040;13.722;2023-04-15T13:59:32;4.15;;;2.58;;
76447;SDS011;65284;51.040;13.722;2023-04-15T14:02:00;4.95;;;2.65;;
76447;SDS011;65284;51.040;13.722;2023-04-15T14:04:26;5.97;;;2.95;;
76447;SDS011;65284;51.040;13.722;2023-04-15T14:06:53;4.13;;;2.63;;
76447;SDS011;65284;51.040;13.722;2023-04-15T14:09:19;4.65;;;2.60;;
76447;SDS011;65284;51.040;13.722;2023-04-15T14:11:51;3.78;;;2.20;;
76447;SDS011;65284;51.040;13.722;2023-04-15T14:14:18;5.28;;;2.88;;
76447;SDS011;65284;51.040;13.722;2023-04-15T14:16:45;6.32;;;3.05;;
76447;SDS011;65284;51.040;13.722;2023-04-15T14:19:11;5.03;;;2.78;;
76447;SDS011;65284;51.040;13.722;2023-04-15T14:21:38;5.45;;;2.78;;
76447;SDS011;65284;51.040;13.722;2023-04-15T14:24:04;6.10;;;2.90;;
76447;SDS011;65284;51.040;13.722;2023-04-15T14:26:31;5.78;;;2.88;;
76447;SDS011;65284;51.040;13.722;2023-04-15T14:28:57;6.30;;;3.63;;
76447;SDS011;65284;51.040;13.722;2023-04-15T14:31:24;6.45;;;3.28;;
76447;SDS011;65284;51.040;13.722;2023-04-15T14:33:50;10.73;;;5.82;;
76447;SDS011;65284;51.040;13.722;2023-04-15T14:36:16;8.55;;;4.28;;
76447;SDS011;65284;51.040;13.722;2023-04-15T14:38:44;9.18;;;4.57;;
76447;SDS011;65284;51.040;13.722;2023-04-15T14:41:13;8.63;;;4.40;;
76447;SDS011;65284;51.040;13.722;2023-04-15T14:43:46;5.75;;;3.38;;
76447;SDS011;65284;51.040;13.722;2023-04-15T14:46:13;5.53;;;2.72;;
76447;SDS011;65284;51.040;13.722;2023-04-15T14:48:39;4.80;;;2.85;;
76447;SDS011;65284;51.040;13.722;2023-04-15T14:51:06;6.07;;;3.00;;
76447;SDS011;65284;51.040;13.722;2023-04-15T14:53:33;6.03;;;3.05;;
76447;SDS011;65284;51.040;13.722;2023-04-15T14:55:59;4.72;;;2.88;;